Terminal Aerodrome Forecast
Issued by NWS Austin/San Antonio, TX

Home | Current Version | Previous Version | Text Only | Print | Product List | Glossary On
Versions: 1 2 3 4 5 6 7 8 9 10 11 12 13 14 15 16 17 18
362
FTUS44 KEWX 291738
TAFAUS
TAF
KAUS 291738Z 2918/3024 16018G28KT P6SM BKN035 BKN250
     FM300000 34018G28KT 6SM -SHRA BKN035
      TEMPO 3001/3004 VRB15G25KT 4SM TSRA SCT010 BKN030CB
     FM300600 34012KT P6SM FEW025 BKN070 PROB30 3006/3010 6SM -TSRA
      BKN035CB
     FM301500 32014G24KT P6SM FEW090
     FM302200 31012KT P6SM FEW250=

USA.gov is the U.S. government's official web portal to all federal, state and local government web resources and services.